This demonstration page uses our WeatherBlox Daily Observations layout. Learn more.

39.92423, -83.80882

Hourly Observations for June 15, 2020

Temp ( °F °C ) Dew Point ( °F °C ) Humidity (%) Winds ( mph kmh ) Pressure ( in mb ) Visibility ( mi km ) Precip ( " mm )
12:56 am 00:56 Clear 56 13.3 42 5.6 60 60 NE 10 17 30.27 1025 10 16.0934 0 0
1:56 am 01:56 Mostly Clear 54 12.2 43 6.1 67 67 NNE 6 9 30.27 1025 10 16.0934 0 0
2:56 am 02:56 Clear 53 11.7 45 7.2 74 74 N 5 7 30.27 1025 10 16.0934 0 0
3:56 am 03:56 Clear 51 10.6 46 7.8 83 83 N 6 9 30.27 1025 10 16.0934 0 0
4:56 am 04:56 Clear 53 11.7 47 8.3 80 80 NNE 9 15 30.28 1025 10 16.0934 0 0
5:56 am 05:56 Mostly Clear 53 11.7 49 9.4 86 86 NNE 3 6 30.28 1025 10 16.0934 0 0
6:56 am 06:56 Mostly Sunny 55 12.8 50 10 83 83 NNE 9 15 30.3 1026 10 16.0934 0 0
7:56 am 07:56 Cloudy 56 13.3 51 10.6 84 84 NE 9 15 30.32 1027 10 16.0934 0.02 0.508
8:56 am 08:56 Partly Cloudy 60 15.6 54 12.2 80 80 NE 8 13 30.33 1027 10 16.0934 0.24 6.096
12:56 pm 12:56 Cloudy 69 20.6 58 14.4 68 68 undefined 6 9 30.3 1026 10 16.09 0 0.0017999999690801
1:56 pm 13:56 Cloudy 71 21.7 58 14.4 63 63 NE 6 9 30.27 1025 10 16.09 0 0.00050000002374873
2:56 pm 14:56 Mostly Cloudy 74 23.3 58 14.4 57 57 ESE 11 18 30.27 1025 10 16.09 0 0.00030000001424924
3:56 pm 15:56 Cloudy 73 22.8 57 13.9 57 57 ESE 10 17 30.27 1025 10 16.09 0 0.001300000003539
4:56 pm 16:56 Cloudy 72 22.2 57 13.9 59 59 E 10 17 30.27 1025 10 16.09 0 0.0048000002279878
5:56 pm 17:56 Cloudy 71 21.7 59 15 66 66 ESE 9 15 30.27 1025 10 16.09 0 0.00080000003799796
6:56 pm 18:56 Mostly Sunny 73 22.8 58 14.4 59 59 ENE 6 9 30.29 1026 10 16.0934 0 0
7:56 pm 19:56 Mostly Sunny 73 22.8 55 12.8 53 53 SE 8 13 30.29 1026 10 16.0934 0 0
8:56 pm 20:56 Mostly Cloudy 70 21.1 59 15 68 68 NE 8 13 30.29 1026 10 16.0934 0.01 0.254
9:56 pm 21:56 Clear 66 18.9 58 14.4 75 75 E 3 6 30.3 1026 10 16.0934 0 0
10:56 pm 22:56 Clear 63 17.2 58 14.4 84 84 E 3 6 30.32 1027 10 16.0934 0 0
11:56 pm 23:56 Mostly Clear 61 16.1 58 14.4 90 90 E 3 6 30.32 1027 7 11.26538 0 0

Powered by AerisWeather